South Hampton, New Hampshire
Current Conditions -  °F | °C
As of 4:58 AM on Friday 31 Oct 2014 (Local Time) from KPSM Reporting Station
Overcast Overcast  
Wind Chill: 40°   Ceiling: 5500
Heat Index: 40°   Visibility: 10mi
Dew Point: 36°   Wind: 3mph
Humidity: 85%   Direction: 280°W
Pressure: 30.01"   Gusts: NA
Location:  42.9089°N, 70.979°W
Report Text: KPSM 310858Z 28003KT 10SM OVC055 05/02 A3001 RMK AO2A SLP166 T00450022 52003
Loading
Personal Weather Stations






























Interactive Weather Map
Tropical Storm Tracking
New forecast layout! Learn more

10-Day Weather Forecast

Advertisements
Track Severe Weather on mobile